Time;durP1;ratioP1;P1;durP2;ratioP2;P2;SDS_P1;SDS_P2;PMS_P1;PMS_P2;Temp;Humidity;BMP_temperature;BMP_pressure;BME280_temperature;BME280_humidity;BME280_pressure;Samples;Min_cycle;Max_cycle;Signal;HPM_P1;HPM_P2
2022/04/07 02:33:53;;;;;;;7.80;1.88;;;;;;;;;;5795058;23;20055;-76
2022/04/07 02:36:19;;;;;;;2.90;1.33;;;;;;;;;;4974926;28;20035;-77
2022/04/07 02:38:44;;;;;;;6.43;1.98;;;;;;;;;;4974950;28;20023;-77
2022/04/07 02:41:09;;;;;;;3.35;1.40;;;;;;;;;;4973644;28;20015;-77
2022/04/07 02:43:35;;;;;;;4.05;1.55;;;;;;;;;;4974423;28;20249;-77
2022/04/07 02:46:00;;;;;;;6.63;1.95;;;;;;;;;;4974418;28;20049;-76
2022/04/07 02:48:25;;;;;;;4.35;1.70;;;;;;;;;;4974894;28;20026;-78
2022/04/07 02:50:50;;;;;;;6.70;1.73;;;;;;;;;;4975166;28;20035;-77
2022/04/07 02:53:15;;;;;;;3.65;1.70;;;;;;;;;;4974348;28;20257;-77
2022/04/07 02:55:41;;;;;;;3.08;1.60;;;;;;;;;;4974631;28;20501;-78
2022/04/07 02:58:06;;;;;;;6.97;1.73;;;;;;;;;;4974661;28;20477;-77
2022/04/07 03:00:31;;;;;;;7.00;1.73;;;;;;;;;;4974604;28;20489;-77
2022/04/07 03:02:57;;;;;;;3.90;1.75;;;;;;;;;;4975348;28;20018;-77
2022/04/07 03:05:22;;;;;;;4.88;1.60;;;;;;;;;;4974783;28;20490;-78
2022/04/07 03:07:47;;;;;;;8.65;2.25;;;;;;;;;;4974592;28;20473;-77
2022/04/07 03:10:15;;;;;;;3.95;1.60;;;;;;;;;;4974383;28;20026;-77
2022/04/07 03:12:41;;;;;;;4.00;1.55;;;;;;;;;;4974010;28;20470;-78
2022/04/07 03:15:06;;;;;;;4.10;1.50;;;;;;;;;;4974039;28;20385;-78
2022/04/07 03:17:33;;;;;;;5.05;1.90;;;;;;;;;;4972709;28;20025;-79
2022/04/07 03:19:58;;;;;;;4.38;1.77;;;;;;;;;;4973997;28;20089;-77
2022/04/07 03:22:25;;;;;;;3.72;1.70;;;;;;;;;;4973780;28;20093;-78
2022/04/07 03:24:52;;;;;;;4.82;1.80;;;;;;;;;;4972452;28;20117;-77
2022/04/07 03:27:17;;;;;;;5.13;2.00;;;;;;;;;;4974470;28;20099;-78
2022/04/07 03:29:42;;;;;;;4.97;2.35;;;;;;;;;;4974075;28;20057;-77
2022/04/07 03:32:07;;;;;;;7.60;1.80;;;;;;;;;;4973866;28;20533;-77
2022/04/07 03:34:39;;;;;;;4.85;1.90;;;;;;;;;;4972533;28;20048;-78
2022/04/07 03:37:04;;;;;;;4.22;1.60;;;;;;;;;;4973888;28;20157;-77
2022/04/07 03:39:30;;;;;;;6.57;1.67;;;;;;;;;;4972772;28;20055;-78
2022/04/07 03:41:55;;;;;;;3.35;1.70;;;;;;;;;;4974272;28;20026;-77
2022/04/07 03:44:20;;;;;;;4.72;1.80;;;;;;;;;;4973577;28;20018;-78
2022/04/07 03:46:46;;;;;;;5.05;1.70;;;;;;;;;;4973613;28;20485;-77
2022/04/07 03:49:11;;;;;;;4.38;1.85;;;;;;;;;;4972526;28;20098;-77
2022/04/07 03:51:36;;;;;;;6.53;2.55;;;;;;;;;;4973935;28;20027;-77
2022/04/07 03:54:01;;;;;;;5.78;2.20;;;;;;;;;;4972644;28;20027;-78
2022/04/07 03:56:27;;;;;;;5.35;2.15;;;;;;;;;;4973591;28;20019;-78
2022/04/07 03:58:52;;;;;;;3.92;2.00;;;;;;;;;;4973898;28;20478;-78
2022/04/07 04:01:18;;;;;;;5.40;2.60;;;;;;;;;;4974838;28;20102;-77
2022/04/07 04:03:43;;;;;;;4.85;2.13;;;;;;;;;;4974413;28;20496;-77
2022/04/07 04:06:08;;;;;;;8.00;2.10;;;;;;;;;;4972333;28;20025;-77
2022/04/07 04:08:33;;;;;;;4.00;1.63;;;;;;;;;;4973578;28;20101;-77
2022/04/07 04:10:59;;;;;;;5.13;1.90;;;;;;;;;;4973828;28;20391;-76
2022/04/07 04:13:26;;;;;;;5.07;1.90;;;;;;;;;;4974269;28;20022;-77
2022/04/07 04:15:51;;;;;;;3.90;1.70;;;;;;;;;;4981859;28;20050;-78
2022/04/07 04:18:16;;;;;;;3.33;1.80;;;;;;;;;;4982425;28;20023;-76
2022/04/07 04:20:41;;;;;;;9.40;2.10;;;;;;;;;;4983643;28;20039;-77
2022/04/07 04:23:07;;;;;;;6.07;2.20;;;;;;;;;;4984625;28;20011;-75
2022/04/07 04:25:32;;;;;;;7.38;1.90;;;;;;;;;;4990777;28;20026;-78
2022/04/07 04:27:57;;;;;;;5.43;1.77;;;;;;;;;;4990515;28;20061;-77
2022/04/07 04:30:23;;;;;;;9.50;2.17;;;;;;;;;;4989241;28;20023;-78
2022/04/07 04:32:48;;;;;;;7.03;1.95;;;;;;;;;;4990018;28;20066;-76
2022/04/07 04:35:13;;;;;;;6.07;2.75;;;;;;;;;;4988549;28;20070;-78
2022/04/07 04:37:39;;;;;;;7.13;1.85;;;;;;;;;;4986590;28;20037;-78
2022/04/07 04:40:04;;;;;;;5.30;1.65;;;;;;;;;;4980939;28;20492;-77
2022/04/07 04:42:30;;;;;;;4.45;2.03;;;;;;;;;;4979145;28;20030;-77
2022/04/07 04:44:55;;;;;;;3.67;1.75;;;;;;;;;;4979890;28;20018;-76
2022/04/07 04:47:20;;;;;;;3.95;1.90;;;;;;;;;;4981103;28;20030;-77
2022/04/07 04:49:45;;;;;;;5.38;2.00;;;;;;;;;;4979261;28;20544;-77
2022/04/07 04:52:11;;;;;;;4.47;2.00;;;;;;;;;;4980370;28;20105;-78
2022/04/07 04:54:37;;;;;;;4.30;2.00;;;;;;;;;;4980422;28;20494;-77
2022/04/07 04:57:02;;;;;;;3.67;1.70;;;;;;;;;;4978382;28;20062;-77
2022/04/07 04:59:27;;;;;;;4.00;1.92;;;;;;;;;;4981171;28;20011;-76
2022/04/07 05:01:53;;;;;;;5.88;2.00;;;;;;;;;;4977790;28;20081;-76
2022/04/07 05:04:18;;;;;;;3.75;1.58;;;;;;;;;;4978930;28;20019;-76
2022/04/07 05:06:43;;;;;;;3.80;1.55;;;;;;;;;;4977841;28;20054;-77
2022/04/07 05:09:08;;;;;;;3.67;1.58;;;;;;;;;;4979559;28;20050;-77
2022/04/07 05:11:34;;;;;;;4.38;1.80;;;;;;;;;;4979854;28;20023;-78
2022/04/07 05:13:59;;;;;;;3.05;1.40;;;;;;;;;;4978680;28;20292;-78
2022/04/07 05:16:25;;;;;;;4.45;1.50;;;;;;;;;;4981017;28;20027;-78
2022/04/07 05:18:50;;;;;;;6.10;1.85;;;;;;;;;;4978532;28;20489;-78
2022/04/07 05:21:15;;;;;;;3.83;1.63;;;;;;;;;;4979415;28;20023;-76
2022/04/07 05:23:41;;;;;;;6.78;1.98;;;;;;;;;;4979212;28;20019;-79
2022/04/07 05:26:06;;;;;;;4.20;1.58;;;;;;;;;;4977920;28;20470;-77
2022/04/07 05:28:31;;;;;;;11.75;1.98;;;;;;;;;;4978343;28;20130;-78
2022/04/07 05:30:57;;;;;;;5.28;1.40;;;;;;;;;;4980788;28;20474;-77
2022/04/07 05:33:22;;;;;;;3.47;1.73;;;;;;;;;;4980510;28;20015;-77
2022/04/07 05:35:47;;;;;;;5.80;1.50;;;;;;;;;;4977040;28;20574;-78
2022/04/07 05:38:12;;;;;;;3.42;1.50;;;;;;;;;;4980132;28;20022;-78
2022/04/07 05:40:40;;;;;;;5.90;1.58;;;;;;;;;;4977771;28;20015;-78
2022/04/07 05:43:05;;;;;;;6.38;1.63;;;;;;;;;;4975837;28;20027;-77
2022/04/07 05:45:31;;;;;;;5.03;1.70;;;;;;;;;;4974267;28;20058;-77
2022/04/07 05:47:56;;;;;;;6.47;1.50;;;;;;;;;;4976519;28;20042;-78
2022/04/07 05:50:21;;;;;;;8.50;1.92;;;;;;;;;;4977672;28;20018;-76
2022/04/07 05:52:47;;;;;;;3.95;1.48;;;;;;;;;;4976338;28;20023;-78
2022/04/07 05:55:12;;;;;;;2.45;1.30;;;;;;;;;;4977283;28;20070;-79
2022/04/07 05:57:38;;;;;;;4.65;1.23;;;;;;;;;;4977902;28;20023;-79
2022/04/07 06:00:04;;;;;;;4.53;1.20;;;;;;;;;;4977157;28;20015;-79
2022/04/07 06:02:30;;;;;;;5.22;1.88;;;;;;;;;;4977132;28;20098;-76
2022/04/07 06:04:55;;;;;;;3.38;1.75;;;;;;;;;;4976762;28;20046;-76
2022/04/07 06:07:20;;;;;;;3.45;1.55;;;;;;;;;;4978357;28;20026;-78
2022/04/07 06:09:45;;;;;;;4.45;1.70;;;;;;;;;;4977945;28;20055;-78
2022/04/07 06:12:10;;;;;;;2.55;1.50;;;;;;;;;;4977503;28;20027;-75
2022/04/07 06:14:36;;;;;;;3.22;1.45;;;;;;;;;;4977441;28;20027;-78
2022/04/07 06:17:02;;;;;;;3.80;1.40;;;;;;;;;;4976994;28;20378;-77
2022/04/07 06:19:27;;;;;;;2.00;1.00;;;;;;;;;;4976970;28;20363;-76
2022/04/07 06:21:52;;;;;;;2.63;1.48;;;;;;;;;;4976185;28;20019;-76
2022/04/07 06:24:17;;;;;;;3.25;1.63;;;;;;;;;;4975308;28;20026;-77
2022/04/07 06:26:42;;;;;;;5.55;1.23;;;;;;;;;;4975910;28;20050;-78
2022/04/07 06:29:07;;;;;;;3.88;1.73;;;;;;;;;;4975837;28;20497;-74
2022/04/07 06:31:33;;;;;;;4.50;1.10;;;;;;;;;;4975418;28;20038;-82
2022/04/07 06:33:58;;;;;;;7.57;1.30;;;;;;;;;;4977848;28;20026;-77
2022/04/07 06:36:23;;;;;;;2.53;1.20;;;;;;;;;;4975102;28;20081;-76
2022/04/07 06:38:48;;;;;;;2.95;0.93;;;;;;;;;;4975369;28;20105;-77
2022/04/07 06:41:13;;;;;;;1.60;0.90;;;;;;;;;;4974952;28;20058;-77
2022/04/07 06:43:39;;;;;;;2.65;1.23;;;;;;;;;;4975101;28;20035;-78
2022/04/07 06:46:04;;;;;;;2.05;0.95;;;;;;;;;;4973455;28;20030;-78
2022/04/07 06:48:29;;;;;;;2.35;1.00;;;;;;;;;;4974631;28;20015;-78
2022/04/07 06:50:55;;;;;;;4.85;1.20;;;;;;;;;;4973701;28;20122;-77
2022/04/07 06:53:20;;;;;;;3.20;1.08;;;;;;;;;;4973351;28;20027;-77
2022/04/07 06:55:45;;;;;;;1.77;0.80;;;;;;;;;;4975566;28;20478;-78
2022/04/07 06:58:11;;;;;;;1.65;0.80;;;;;;;;;;4975728;28;20033;-78
2022/04/07 07:00:43;;;;;;;2.88;0.88;;;;;;;;;;4975736;28;20046;-78
2022/04/07 07:03:09;;;;;;;4.05;0.90;;;;;;;;;;4974998;28;20023;-78
2022/04/07 07:05:35;;;;;;;1.92;0.68;;;;;;;;;;4976182;28;20058;-77
2022/04/07 07:08:19;;;;;;;1.83;0.82;;;;;;;;;;4975254;28;20030;-78
2022/04/07 07:10:48;;;;;;;1.15;0.47;;;;;;;;;;4975089;28;20027;-77
2022/04/07 07:13:16;;;;;;;2.75;1.08;;;;;;;;;;4975761;28;20027;-77
2022/04/07 07:15:41;;;;;;;4.82;0.80;;;;;;;;;;4974862;28;20019;-76
2022/04/07 07:18:07;;;;;;;5.93;0.95;;;;;;;;;;4975836;28;20022;-77
2022/04/07 07:20:32;;;;;;;2.88;0.90;;;;;;;;;;4974900;28;20101;-77
2022/04/07 07:22:57;;;;;;;1.33;0.60;;;;;;;;;;4975669;28;20027;-77
2022/04/07 07:25:23;;;;;;;2.90;0.95;;;;;;;;;;4975434;28;20022;-78
2022/04/07 07:27:48;;;;;;;2.65;0.90;;;;;;;;;;4976904;28;20023;-79
2022/04/07 07:30:15;;;;;;;1.15;0.57;;;;;;;;;;4976294;28;20035;-78
2022/04/07 07:32:41;;;;;;;5.43;1.05;;;;;;;;;;4977355;28;20054;-77
2022/04/07 07:35:07;;;;;;;3.55;0.73;;;;;;;;;;4975518;28;20049;-79
2022/04/07 07:37:32;;;;;;;4.25;1.17;;;;;;;;;;4977789;28;20105;-77
2022/04/07 07:40:07;;;;;;;2.75;0.90;;;;;;;;;;4979055;28;20011;-77
2022/04/07 07:42:33;;;;;;;6.35;0.80;;;;;;;;;;4976674;28;20027;-78
2022/04/07 07:44:58;;;;;;;5.28;1.25;;;;;;;;;;4976041;28;20073;-79
2022/04/07 07:47:27;;;;;;;7.85;1.23;;;;;;;;;;4979251;28;20109;-80
2022/04/07 07:49:52;;;;;;;3.38;1.20;;;;;;;;;;4976163;28;20023;-80
2022/04/07 07:52:17;;;;;;;5.97;1.10;;;;;;;;;;4973315;28;20394;-77
2022/04/07 07:54:42;;;;;;;2.40;0.70;;;;;;;;;;4974411;28;20109;-78
2022/04/07 07:57:07;;;;;;;7.60;0.73;;;;;;;;;;4974966;28;20030;-78
2022/04/07 07:59:33;;;;;;;2.28;0.40;;;;;;;;;;4974066;28;20073;-78
2022/04/07 08:01:58;;;;;;;1.25;0.60;;;;;;;;;;4975298;28;20034;-78
2022/04/07 08:04:24;;;;;;;2.22;0.70;;;;;;;;;;4976839;28;20113;-78
2022/04/07 08:06:49;;;;;;;7.30;0.80;;;;;;;;;;4974708;28;20394;-79
2022/04/07 08:09:14;;;;;;;3.08;0.93;;;;;;;;;;4974308;28;20101;-78
2022/04/07 08:11:41;;;;;;;1.08;0.60;;;;;;;;;;4976357;28;20062;-78
2022/04/07 08:14:06;;;;;;;1.65;0.60;;;;;;;;;;4974996;28;20114;-79
2022/04/07 08:16:31;;;;;;;0.90;0.55;;;;;;;;;;4976581;28;20455;-79
2022/04/07 08:18:57;;;;;;;4.40;0.90;;;;;;;;;;4975068;28;20019;-77
2022/04/07 08:21:22;;;;;;;5.43;1.17;;;;;;;;;;4975509;28;20054;-78
2022/04/07 08:23:50;;;;;;;1.73;0.60;;;;;;;;;;4973964;28;20102;-78
2022/04/07 08:26:16;;;;;;;7.63;0.55;;;;;;;;;;4974545;28;20099;-78
2022/04/07 08:28:41;;;;;;;2.13;0.52;;;;;;;;;;4975135;28;20039;-78
2022/04/07 08:31:07;;;;;;;1.85;0.30;;;;;;;;;;4974881;28;20045;-78
2022/04/07 08:33:32;;;;;;;1.05;0.47;;;;;;;;;;4975840;28;20037;-78
2022/04/07 08:35:57;;;;;;;3.08;0.60;;;;;;;;;;4974813;28;20030;-78
2022/04/07 08:38:22;;;;;;;0.55;0.28;;;;;;;;;;4973675;28;20212;-78
2022/04/07 08:40:51;;;;;;;0.97;0.50;;;;;;;;;;4974558;28;20101;-78
2022/04/07 08:43:17;;;;;;;2.13;0.60;;;;;;;;;;4975940;28;20276;-77
2022/04/07 08:45:43;;;;;;;2.88;0.60;;;;;;;;;;4974819;28;20023;-79
2022/04/07 08:48:09;;;;;;;7.18;0.60;;;;;;;;;;4978298;28;20402;-79
2022/04/07 08:50:35;;;;;;;2.95;0.57;;;;;;;;;;4977366;28;20022;-78
2022/04/07 08:53:01;;;;;;;3.03;0.65;;;;;;;;;;4977349;28;20015;-77
2022/04/07 08:55:26;;;;;;;10.07;1.13;;;;;;;;;;4973656;28;20038;-78
2022/04/07 08:57:51;;;;;;;2.78;0.63;;;;;;;;;;4975275;28;20311;-78
2022/04/07 09:00:17;;;;;;;15.38;1.33;;;;;;;;;;4978113;28;20030;-77
2022/04/07 09:02:46;;;;;;;4.30;0.73;;;;;;;;;;4978128;28;20026;-79
2022/04/07 09:05:12;;;;;;;3.50;0.80;;;;;;;;;;4980730;28;20100;-78
2022/04/07 09:07:37;;;;;;;2.60;0.60;;;;;;;;;;4978642;28;20015;-78
2022/04/07 09:10:03;;;;;;;2.50;0.43;;;;;;;;;;4980240;28;20030;-78
2022/04/07 09:12:28;;;;;;;3.65;0.80;;;;;;;;;;4981391;28;20475;-78
2022/04/07 09:14:54;;;;;;;5.22;0.50;;;;;;;;;;4981098;28;20062;-79
2022/04/07 09:17:19;;;;;;;6.20;0.70;;;;;;;;;;4980120;28;20046;-77
2022/04/07 09:19:48;;;;;;;5.53;0.68;;;;;;;;;;4981910;28;20097;-77
2022/04/07 09:22:13;;;;;;;7.00;1.25;;;;;;;;;;4979516;28;20355;-80
2022/04/07 09:24:39;;;;;;;3.40;0.63;;;;;;;;;;4980149;28;20019;-80
2022/04/07 09:27:06;;;;;;;1.98;0.30;;;;;;;;;;4977663;28;20043;-78
2022/04/07 09:29:41;;;;;;;0.98;0.60;;;;;;;;;;4980385;28;20139;-77
2022/04/07 09:32:25;;;;;;;3.70;0.57;;;;;;;;;;4980264;28;20022;-80
2022/04/07 09:34:52;;;;;;;3.97;0.55;;;;;;;;;;4978194;28;20041;-80
2022/04/07 09:37:19;;;;;;;5.40;0.60;;;;;;;;;;4976314;28;20019;-80
2022/04/07 09:39:44;;;;;;;2.50;0.63;;;;;;;;;;4978754;28;20056;-77
2022/04/07 09:42:23;;;;;;;2.58;0.38;;;;;;;;;;4985327;28;20022;-77
2022/04/07 09:44:51;;;;;;;1.20;0.40;;;;;;;;;;4982078;28;20019;-79
2022/04/07 09:47:16;;;;;;;3.08;0.40;;;;;;;;;;4981017;28;20038;-77
2022/04/07 09:49:42;;;;;;;10.32;0.85;;;;;;;;;;4982312;28;20027;-79
2022/04/07 09:52:09;;;;;;;4.53;1.30;;;;;;;;;;4984546;28;20038;-76
2022/04/07 09:54:35;;;;;;;2.28;0.55;;;;;;;;;;4981045;28;20026;-81
2022/04/07 09:57:09;;;;;;;2.85;1.20;;;;;;;;;;4986802;28;20054;-80
2022/04/07 09:59:35;;;;;;;9.95;0.95;;;;;;;;;;4983274;28;20073;-78
2022/04/07 10:02:00;;;;;;;1.45;0.50;;;;;;;;;;4983246;28;20042;-80
2022/04/07 10:04:26;;;;;;;3.13;0.60;;;;;;;;;;4979523;28;20014;-80
2022/04/07 10:06:53;;;;;;;3.13;0.47;;;;;;;;;;4983018;28;20027;-79
2022/04/07 10:09:19;;;;;;;7.60;0.60;;;;;;;;;;4979087;28;20026;-78
2022/04/07 10:11:45;;;;;;;4.22;0.60;;;;;;;;;;4980716;28;20442;-78
2022/04/07 10:14:11;;;;;;;5.30;0.70;;;;;;;;;;4982641;28;20031;-79
2022/04/07 10:16:36;;;;;;;9.05;0.90;;;;;;;;;;4985669;28;20022;-78
2022/04/07 10:19:07;;;;;;;1.55;0.60;;;;;;;;;;4984565;28;20030;-76
2022/04/07 10:21:52;;;;;;;1.88;0.60;;;;;;;;;;4980092;28;20026;-78
2022/04/07 10:24:18;;;;;;;4.32;1.02;;;;;;;;;;4980902;28;20082;-78
2022/04/07 10:26:44;;;;;;;1.67;0.57;;;;;;;;;;4982412;28;20031;-82
2022/04/07 10:29:18;;;;;;;3.58;0.52;;;;;;;;;;4982693;28;20253;-81
2022/04/07 10:32:03;;;;;;;3.55;0.40;;;;;;;;;;4978899;28;20023;-79
2022/04/07 10:34:35;;;;;;;2.28;0.30;;;;;;;;;;4979917;28;20505;-78
2022/04/07 10:37:06;;;;;;;1.00;0.40;;;;;;;;;;4983232;28;20030;-77
2022/04/07 10:39:32;;;;;;;1.13;0.43;;;;;;;;;;4978899;28;20019;-77
2022/04/07 10:41:58;;;;;;;4.45;0.70;;;;;;;;;;4980999;28;20414;-79
2022/04/07 10:44:24;;;;;;;5.00;0.88;;;;;;;;;;4981212;28;20018;-79
2022/04/07 10:47:01;;;;;;;4.22;0.57;;;;;;;;;;4985009;28;20022;-78
2022/04/07 10:49:27;;;;;;;7.13;0.80;;;;;;;;;;4980958;28;20426;-79
2022/04/07 10:51:56;;;;;;;5.32;0.50;;;;;;;;;;4977706;28;20106;-78
2022/04/07 10:54:22;;;;;;;6.82;0.77;;;;;;;;;;4977453;28;20055;-78
2022/04/07 10:56:49;;;;;;;7.82;0.55;;;;;;;;;;4978881;28;20019;-78
2022/04/07 10:59:18;;;;;;;7.88;0.70;;;;;;;;;;4977636;28;20055;-78
2022/04/07 11:01:44;;;;;;;14.82;0.80;;;;;;;;;;4976495;28;20041;-77
2022/04/07 11:04:16;;;;;;;17.38;1.45;;;;;;;;;;4977076;28;20039;-77
2022/04/07 11:07:01;;;;;;;8.00;1.15;;;;;;;;;;4977367;28;20407;-78
2022/04/07 11:09:26;;;;;;;5.55;0.93;;;;;;;;;;4976859;28;20026;-78
2022/04/07 11:11:52;;;;;;;9.87;0.83;;;;;;;;;;4976876;28;20019;-79
2022/04/07 11:14:25;;;;;;;2.50;0.50;;;;;;;;;;4978541;28;20717;-78
2022/04/07 11:16:50;;;;;;;5.78;0.65;;;;;;;;;;4977693;28;20019;-79
2022/04/07 11:19:20;;;;;;;14.15;1.30;;;;;;;;;;4976990;28;20027;-80
2022/04/07 11:21:49;;;;;;;10.55;0.80;;;;;;;;;;4977670;28;20544;-79
2022/04/07 11:24:15;;;;;;;8.05;2.08;;;;;;;;;;4978306;28;20015;-78
2022/04/07 11:26:40;;;;;;;7.00;0.68;;;;;;;;;;4976361;28;20019;-79
2022/04/07 11:29:07;;;;;;;6.07;0.80;;;;;;;;;;4976636;28;20552;-78
2022/04/07 11:31:43;;;;;;;2.70;0.55;;;;;;;;;;4976852;28;20015;-80
2022/04/07 11:34:27;;;;;;;9.73;0.82;;;;;;;;;;4976401;28;20165;-80
2022/04/07 11:36:52;;;;;;;42.83;2.70;;;;;;;;;;4979140;28;20026;-79
2022/04/07 11:39:19;;;;;;;13.35;0.65;;;;;;;;;;4975782;28;20030;-79
2022/04/07 11:41:44;;;;;;;8.77;1.30;;;;;;;;;;4975736;28;20018;-79
2022/04/07 11:44:10;;;;;;;14.25;0.93;;;;;;;;;;4973847;28;20086;-79
2022/04/07 11:46:35;;;;;;;22.77;1.45;;;;;;;;;;4972055;28;20019;-78
2022/04/07 11:49:01;;;;;;;24.27;2.08;;;;;;;;;;4973277;28;20046;-78
2022/04/07 11:51:26;;;;;;;15.40;1.13;;;;;;;;;;4972791;28;20031;-79
2022/04/07 11:53:52;;;;;;;17.52;1.33;;;;;;;;;;4972898;28;20466;-79
2022/04/07 11:56:20;;;;;;;11.07;1.00;;;;;;;;;;4972464;28;20030;-79
2022/04/07 11:58:55;;;;;;;14.77;1.30;;;;;;;;;;4974105;28;20019;-79
2022/04/07 12:01:20;;;;;;;13.10;1.38;;;;;;;;;;4976717;28;20443;-79
2022/04/07 12:03:56;;;;;;;19.88;1.42;;;;;;;;;;4981146;28;20110;-79
2022/04/07 12:06:25;;;;;;;20.25;1.30;;;;;;;;;;4976496;28;20418;-79
2022/04/07 12:08:51;;;;;;;16.05;0.85;;;;;;;;;;4974019;28;20058;-79
2022/04/07 12:11:19;;;;;;;2.75;0.50;;;;;;;;;;4973641;28;20057;-78
2022/04/07 12:13:44;;;;;;;3.30;0.85;;;;;;;;;;4973962;28;20035;-79
2022/04/07 12:16:09;;;;;;;4.60;0.55;;;;;;;;;;4974295;28;20030;-80
2022/04/07 12:18:41;;;;;;;4.43;0.77;;;;;;;;;;4975436;28;20023;-79
2022/04/07 12:21:07;;;;;;;4.13;0.90;;;;;;;;;;4975279;28;20042;-79
2022/04/07 12:23:32;;;;;;;11.05;0.63;;;;;;;;;;4972480;28;20118;-80
2022/04/07 12:26:01;;;;;;;8.68;0.73;;;;;;;;;;4971356;28;20019;-78
2022/04/07 12:28:27;;;;;;;;;;;;;;;;;;4972936;28;20022;-79
2022/04/07 12:30:53;;;;;;;9.55;0.57;;;;;;;;;;4973172;28;19906;-77
2022/04/07 12:33:39;;;;;;;7.13;0.60;;;;;;;;;;4972179;28;20022;-78
2022/04/07 12:36:06;;;;;;;4.72;0.52;;;;;;;;;;4970857;28;20035;-77
2022/04/07 12:38:31;;;;;;;4.55;0.40;;;;;;;;;;4971027;28;20022;-81
2022/04/07 12:41:07;;;;;;;8.07;0.60;;;;;;;;;;4972229;28;20019;-79
2022/04/07 12:43:42;;;;;;;13.05;1.13;;;;;;;;;;4972988;28;20055;-79
2022/04/07 12:46:08;;;;;;;16.65;1.10;;;;;;;;;;4975417;28;20018;-78
2022/04/07 12:48:34;;;;;;;10.68;0.90;;;;;;;;;;4976558;28;20058;-78
2022/04/07 12:51:00;;;;;;;12.82;1.73;;;;;;;;;;4975220;28;20113;-78
2022/04/07 12:53:34;;;;;;;6.95;0.80;;;;;;;;;;4976113;28;20118;-78
2022/04/07 12:56:02;;;;;;;7.47;1.25;;;;;;;;;;4977263;28;20110;-79
2022/04/07 12:58:28;;;;;;;4.93;0.93;;;;;;;;;;4975898;28;20023;-78
2022/04/07 13:01:01;;;;;;;24.98;1.40;;;;;;;;;;4976053;28;20026;-78
2022/04/07 13:03:28;;;;;;;18.85;1.50;;;;;;;;;;4976117;28;20018;-79
2022/04/07 13:05:53;;;;;;;21.65;1.50;;;;;;;;;;4975987;28;20038;-78
2022/04/07 13:08:19;;;;;;;25.15;1.70;;;;;;;;;;4975887;28;20382;-80
2022/04/07 13:10:44;;;;;;;39.00;3.75;;;;;;;;;;4976494;28;20546;-79
2022/04/07 13:13:10;;;;;;;17.67;1.88;;;;;;;;;;4975314;28;20033;-78
2022/04/07 13:15:35;;;;;;;20.40;1.35;;;;;;;;;;4976136;28;20047;-79
2022/04/07 13:18:02;;;;;;;17.25;2.30;;;;;;;;;;4976160;28;20110;-78
2022/04/07 13:20:28;;;;;;;12.25;1.10;;;;;;;;;;4976216;28;20049;-79
2022/04/07 13:22:53;;;;;;;9.73;1.02;;;;;;;;;;4974718;28;20090;-80
2022/04/07 13:25:18;;;;;;;12.55;1.23;;;;;;;;;;4977902;28;20019;-77
2022/04/07 13:27:43;;;;;;;8.35;0.80;;;;;;;;;;4975975;28;20101;-79
2022/04/07 13:30:10;;;;;;;14.65;0.80;;;;;;;;;;4976458;28;20062;-79
2022/04/07 13:32:35;;;;;;;14.45;1.02;;;;;;;;;;4976351;28;20033;-79
2022/04/07 13:35:01;;;;;;;11.93;1.23;;;;;;;;;;4978090;28;20374;-81
2022/04/07 13:37:26;;;;;;;12.93;1.10;;;;;;;;;;4992334;28;20038;-82
2022/04/07 13:39:52;;;;;;;4.82;0.80;;;;;;;;;;4995934;28;20105;-81
2022/04/07 13:42:18;;;;;;;13.18;1.75;;;;;;;;;;4991029;28;20536;-80
2022/04/07 13:44:43;;;;;;;8.50;1.15;;;;;;;;;;4990165;28;20035;-84
2022/04/07 13:47:08;;;;;;;9.68;1.00;;;;;;;;;;4986603;28;20022;-82
2022/04/07 13:49:33;;;;;;;6.10;0.73;;;;;;;;;;4978897;28;20022;-86
2022/04/07 13:52:00;;;;;;;2.28;0.75;;;;;;;;;;4978426;28;20015;-83
2022/04/07 13:54:25;;;;;;;2.67;0.60;;;;;;;;;;4979975;28;20019;-83
2022/04/07 13:56:54;;;;;;;1.95;0.32;;;;;;;;;;4980532;28;20061;-83
2022/04/07 13:59:19;;;;;;;5.25;0.77;;;;;;;;;;4978172;28;20023;-79
2022/04/07 14:01:44;;;;;;;2.83;0.38;;;;;;;;;;4977059;28;20030;-79
2022/04/07 14:04:10;;;;;;;1.80;0.55;;;;;;;;;;4976186;28;20103;-79
2022/04/07 14:06:35;;;;;;;0.60;0.30;;;;;;;;;;4976610;28;20378;-79
2022/04/07 14:09:01;;;;;;;3.53;0.50;;;;;;;;;;4975894;28;20069;-78
2022/04/07 14:11:26;;;;;;;2.42;0.50;;;;;;;;;;4975499;28;20454;-78
2022/04/07 14:13:52;;;;;;;3.53;0.40;;;;;;;;;;4975848;28;20073;-78
2022/04/07 14:16:18;;;;;;;4.40;1.65;;;;;;;;;;4975880;28;20042;-78
2022/04/07 14:18:43;;;;;;;3.38;0.60;;;;;;;;;;4976998;28;20138;-79
2022/04/07 14:21:11;;;;;;;0.85;0.40;;;;;;;;;;4975630;28;20094;-78
2022/04/07 14:23:36;;;;;;;4.07;0.60;;;;;;;;;;4975740;28;20471;-80
2022/04/07 14:26:01;;;;;;;15.02;1.08;;;;;;;;;;4975307;28;20018;-83
2022/04/07 14:28:26;;;;;;;3.75;0.77;;;;;;;;;;4981680;28;20074;-88
2022/04/07 14:30:51;;;;;;;7.78;0.68;;;;;;;;;;4985108;28;20366;-88
2022/04/07 14:33:17;;;;;;;5.88;1.20;;;;;;;;;;4985670;28;20029;-86
2022/04/07 14:35:43;;;;;;;5.80;0.80;;;;;;;;;;4982761;28;20050;-85
2022/04/07 14:38:09;;;;;;;6.18;0.73;;;;;;;;;;4981320;28;20025;-83
2022/04/07 14:40:35;;;;;;;5.40;0.55;;;;;;;;;;4982439;28;20186;-85
2022/04/07 14:43:00;;;;;;;4.15;0.73;;;;;;;;;;4982679;28;20039;-86
2022/04/07 14:45:25;;;;;;;9.50;1.13;;;;;;;;;;4984081;28;20049;-85
2022/04/07 14:47:50;;;;;;;3.17;0.68;;;;;;;;;;4977057;28;20358;-81
2022/04/07 14:50:15;;;;;;;4.55;1.08;;;;;;;;;;4976279;28;20031;-79
2022/04/07 14:52:41;;;;;;;2.60;0.50;;;;;;;;;;4977984;28;20082;-80
2022/04/07 14:55:07;;;;;;;3.20;1.00;;;;;;;;;;4978533;28;20023;-79
2022/04/07 14:57:32;;;;;;;8.30;0.80;;;;;;;;;;4978419;28;20490;-78
2022/04/07 14:59:57;;;;;;;4.10;0.60;;;;;;;;;;4976498;28;20375;-79
2022/04/07 15:02:23;;;;;;;5.63;0.80;;;;;;;;;;4976119;28;20014;-77
2022/04/07 15:04:48;;;;;;;4.15;0.90;;;;;;;;;;4978537;28;20053;-78
2022/04/07 15:07:13;;;;;;;3.00;0.80;;;;;;;;;;4977403;28;20518;-79
2022/04/07 15:09:40;;;;;;;4.25;1.00;;;;;;;;;;4978022;28;20055;-79
2022/04/07 15:12:06;;;;;;;2.53;0.63;;;;;;;;;;4980338;28;20085;-79
2022/04/07 15:14:41;;;;;;;3.30;0.95;;;;;;;;;;4978736;28;20038;-80
2022/04/07 15:17:08;;;;;;;5.35;1.65;;;;;;;;;;4978971;28;20027;-79
2022/04/07 15:19:34;;;;;;;20.27;2.67;;;;;;;;;;4979085;28;20102;-81
2022/04/07 15:21:59;;;;;;;6.15;2.05;;;;;;;;;;4973515;28;20047;-79
2022/04/07 15:24:24;;;;;;;6.15;2.20;;;;;;;;;;4978048;28;20466;-79
2022/04/07 15:26:49;;;;;;;5.20;1.88;;;;;;;;;;4974665;28;20018;-81
2022/04/07 15:29:14;;;;;;;5.40;1.80;;;;;;;;;;4974312;28;20499;-80
2022/04/07 15:31:40;;;;;;;4.13;1.60;;;;;;;;;;4974380;28;20430;-79
2022/04/07 15:34:05;;;;;;;4.30;1.30;;;;;;;;;;4973378;28;20475;-80
2022/04/07 15:36:32;;;;;;;5.45;1.40;;;;;;;;;;4973813;28;20071;-80
2022/04/07 15:38:57;;;;;;;3.13;1.50;;;;;;;;;;4973594;28;20474;-81
2022/04/07 15:41:23;;;;;;;5.15;1.17;;;;;;;;;;4974386;28;20029;-79
2022/04/07 15:43:49;;;;;;;5.22;1.80;;;;;;;;;;4971766;28;20077;-81
2022/04/07 15:46:14;;;;;;;5.75;1.98;;;;;;;;;;4973396;28;20453;-81
2022/04/07 15:48:39;;;;;;;7.57;2.47;;;;;;;;;;4973256;28;20444;-81
2022/04/07 15:51:05;;;;;;;7.18;1.83;;;;;;;;;;4973524;28;20545;-78
2022/04/07 15:53:30;;;;;;;3.85;1.50;;;;;;;;;;4971704;28;20598;-79
2022/04/07 15:55:57;;;;;;;2.65;1.08;;;;;;;;;;4973150;28;20027;-78
2022/04/07 15:58:22;;;;;;;2.30;0.90;;;;;;;;;;4972735;28;20141;-78
2022/04/07 16:00:47;;;;;;;3.22;0.60;;;;;;;;;;4972868;28;20066;-77
2022/04/07 16:03:14;;;;;;;2.80;1.05;;;;;;;;;;4972915;28;20030;-78
2022/04/07 16:05:39;;;;;;;4.78;0.90;;;;;;;;;;4972827;28;20098;-78
2022/04/07 16:08:04;;;;;;;1.50;0.70;;;;;;;;;;4972638;28;20110;-77
2022/04/07 16:10:30;;;;;;;2.58;0.70;;;;;;;;;;4972662;28;20366;-78
2022/04/07 16:12:55;;;;;;;2.75;0.70;;;;;;;;;;4971475;28;20085;-78
2022/04/07 16:15:21;;;;;;;2.58;1.25;;;;;;;;;;4971383;28;20105;-77
2022/04/07 16:17:46;;;;;;;2.13;0.57;;;;;;;;;;4972438;28;20022;-77
2022/04/07 16:20:11;;;;;;;3.08;0.65;;;;;;;;;;4971915;28;20019;-79
2022/04/07 16:22:37;;;;;;;2.22;0.60;;;;;;;;;;4972220;28;20019;-77
2022/04/07 16:25:03;;;;;;;0.90;0.52;;;;;;;;;;4972294;28;20663;-76
2022/04/07 16:27:28;;;;;;;1.38;0.60;;;;;;;;;;4972513;28;20050;-79
2022/04/07 16:29:54;;;;;;;1.10;0.65;;;;;;;;;;4972489;28;20056;-77
2022/04/07 16:32:19;;;;;;;1.98;0.90;;;;;;;;;;4972691;28;20054;-78
2022/04/07 16:34:44;;;;;;;1.17;0.55;;;;;;;;;;4970719;28;20046;-77
2022/04/07 16:37:10;;;;;;;0.63;0.40;;;;;;;;;;4972413;28;20373;-78
2022/04/07 16:39:35;;;;;;;4.18;0.60;;;;;;;;;;4972821;28;20467;-77
2022/04/07 16:42:00;;;;;;;2.00;0.70;;;;;;;;;;4971177;28;20030;-76
2022/04/07 16:44:27;;;;;;;1.50;0.50;;;;;;;;;;4972351;28;20098;-76
2022/04/07 16:46:53;;;;;;;2.25;0.68;;;;;;;;;;4972351;28;20031;-78
2022/04/07 16:49:19;;;;;;;2.17;0.75;;;;;;;;;;4972188;28;20028;-77
2022/04/07 16:51:44;;;;;;;1.95;0.77;;;;;;;;;;4972553;28;20034;-76
2022/04/07 16:54:09;;;;;;;4.25;0.70;;;;;;;;;;4972923;28;20489;-77
2022/04/07 16:56:41;;;;;;;1.52;0.60;;;;;;;;;;4974474;28;20019;-76
2022/04/07 16:59:08;;;;;;;2.13;0.65;;;;;;;;;;4970892;28;20027;-77
2022/04/07 17:01:33;;;;;;;2.55;0.75;;;;;;;;;;4972406;28;20027;-77
2022/04/07 17:03:59;;;;;;;2.58;1.08;;;;;;;;;;4970971;28;20418;-76
2022/04/07 17:06:24;;;;;;;2.95;0.88;;;;;;;;;;4972575;28;20402;-77
2022/04/07 17:08:50;;;;;;;1.55;0.68;;;;;;;;;;4972366;28;20027;-77